Time;durP1;ratioP1;P1;durP2;ratioP2;P2;SDS_P1;SDS_P2;PMS_P1;PMS_P2;Temp;Humidity;BMP_temperature;BMP_pressure;BME280_temperature;BME280_humidity;BME280_pressure;Samples;Min_cycle;Max_cycle;Signal;HPM_P1;HPM_P2
2021/03/12 00:00:16;;;;;;;3.70;0.90;;;6.30;99.90;;;;;;5003196;28;20041;-85
2021/03/12 00:02:43;;;;;;;4.38;0.88;;;6.40;99.90;;;;;;5002850;28;20054;-85
2021/03/12 00:05:11;;;;;;;2.40;0.88;;;6.30;99.90;;;;;;5005368;28;20053;-86
2021/03/12 00:07:38;;;;;;;2.78;0.50;;;6.30;99.90;;;;;;5005476;28;20080;-86
2021/03/12 00:10:18;;;;;;;3.58;1.15;;;6.30;99.90;;;;;;5000565;28;20078;-85
2021/03/12 00:12:44;;;;;;;6.57;1.58;;;6.10;99.90;;;;;;4999353;28;20054;-84
2021/03/12 00:15:21;;;;;;;2.15;0.80;;;6.10;99.90;;;;;;4999507;28;20049;-84
2021/03/12 00:17:50;;;;;;;2.47;0.80;;;6.10;99.90;;;;;;4999037;28;20050;-86
2021/03/12 00:20:18;;;;;;;1.70;0.52;;;6.30;99.90;;;;;;4999433;28;20069;-84
2021/03/12 00:22:45;;;;;;;3.65;0.73;;;6.20;99.90;;;;;;4999805;28;20500;-85
2021/03/12 00:25:17;;;;;;;3.58;1.10;;;6.10;99.90;;;;;;4992116;28;20129;-84
2021/03/12 00:27:44;;;;;;;4.03;0.88;;;6.10;99.90;;;;;;5000174;28;20515;-85
2021/03/12 00:30:11;;;;;;;4.03;0.98;;;6.00;99.90;;;;;;5002883;28;20081;-85
2021/03/12 00:32:38;;;;;;;3.70;0.95;;;5.90;99.90;;;;;;5003111;28;20503;-85
2021/03/12 00:35:05;;;;;;;4.82;1.00;;;5.70;99.90;;;;;;5004010;28;20053;-85
2021/03/12 00:37:32;;;;;;;5.38;0.85;;;5.60;99.90;;;;;;5003459;28;20074;-85
2021/03/12 00:40:05;;;;;;;3.10;1.08;;;5.40;99.90;;;;;;5003377;28;20118;-86
2021/03/12 00:42:31;;;;;;;4.15;0.82;;;5.30;99.90;;;;;;5003669;28;20096;-85
2021/03/12 00:44:58;;;;;;;3.83;1.15;;;5.10;99.90;;;;;;5005042;28;20415;-85
2021/03/12 00:47:24;;;;;;;3.92;1.13;;;5.00;99.90;;;;;;5021967;28;20102;-85
2021/03/12 00:49:51;;;;;;;6.18;1.27;;;5.10;99.90;;;;;;5005165;28;20050;-85
2021/03/12 00:52:21;;;;;;;4.40;0.70;;;5.00;99.90;;;;;;5008127;28;20427;-85
2021/03/12 00:54:47;;;;;;;3.10;0.82;;;5.30;99.90;;;;;;5005196;28;20057;-86
2021/03/12 00:57:24;;;;;;;4.43;0.82;;;5.50;99.90;;;;;;5020550;28;20064;-84
2021/03/12 00:59:50;;;;;;;7.05;1.00;;;5.60;99.90;;;;;;5020443;28;20466;-84
2021/03/12 01:02:30;;;;;;;4.85;0.93;;;5.60;99.90;;;;;;5004004;28;20084;-86
2021/03/12 01:04:56;;;;;;;2.67;0.85;;;5.50;99.90;;;;;;5003093;28;20459;-86
2021/03/12 01:07:22;;;;;;;2.10;0.70;;;5.50;99.90;;;;;;5020675;28;20083;-86
2021/03/12 01:09:49;;;;;;;4.28;0.98;;;5.50;99.90;;;;;;5002502;28;20065;-86
2021/03/12 01:12:26;;;;;;;1.45;0.52;;;5.50;99.90;;;;;;5003414;28;20064;-85
2021/03/12 01:14:52;;;;;;;3.85;0.90;;;5.40;99.90;;;;;;5002303;28;20058;-86
2021/03/12 01:17:19;;;;;;;3.00;0.82;;;5.30;99.90;;;;;;5002560;28;20128;-87
2021/03/12 01:19:49;;;;;;;2.70;1.02;;;5.20;99.90;;;;;;5003251;28;20046;-86
2021/03/12 01:22:15;;;;;;;4.93;1.05;;;5.20;99.90;;;;;;5002891;28;20078;-86
2021/03/12 01:24:50;;;;;;;4.25;1.10;;;5.20;99.90;;;;;;5002297;28;20080;-86
2021/03/12 01:27:16;;;;;;;5.93;1.60;;;5.10;99.90;;;;;;5002571;28;20142;-86
2021/03/12 01:29:43;;;;;;;3.92;0.98;;;5.20;99.90;;;;;;5002382;28;20076;-86
2021/03/12 01:32:09;;;;;;;2.70;0.75;;;5.20;99.90;;;;;;5002292;28;20071;-86
2021/03/12 01:34:36;;;;;;;6.28;1.48;;;5.20;99.90;;;;;;5019086;28;20049;-86
2021/03/12 01:37:03;;;;;;;3.60;0.93;;;5.30;99.90;;;;;;5017605;28;20137;-86
2021/03/12 01:39:29;;;;;;;4.97;1.08;;;5.50;99.90;;;;;;5000159;28;20049;-87
2021/03/12 01:41:55;;;;;;;1.63;1.02;;;5.40;99.90;;;;;;4999859;28;20077;-86
2021/03/12 01:44:22;;;;;;;3.72;1.02;;;5.30;99.90;;;;;;5018290;28;20057;-86
2021/03/12 01:46:48;;;;;;;3.78;0.88;;;5.20;99.90;;;;;;4999701;28;20050;-87
2021/03/12 01:49:14;;;;;;;4.70;1.30;;;5.10;99.90;;;;;;5000073;28;20486;-86
2021/03/12 01:51:41;;;;;;;3.72;1.08;;;4.90;99.90;;;;;;5000270;28;20137;-86
2021/03/12 01:54:07;;;;;;;3.75;1.15;;;4.90;99.90;;;;;;5000532;28;20180;-87
2021/03/12 01:56:34;;;;;;;2.85;0.80;;;4.90;99.90;;;;;;5000617;28;20470;-87
2021/03/12 01:59:00;;;;;;;1.58;0.75;;;4.90;99.90;;;;;;5018035;28;20084;-86
2021/03/12 02:01:26;;;;;;;2.53;0.77;;;4.90;99.90;;;;;;5000028;28;20048;-87
2021/03/12 02:03:53;;;;;;;3.47;0.98;;;4.90;99.90;;;;;;5000574;28;20061;-87
2021/03/12 02:06:20;;;;;;;1.17;0.50;;;4.80;99.90;;;;;;5001507;28;20488;-87
2021/03/12 02:08:46;;;;;;;1.10;0.30;;;4.80;99.90;;;;;;5002572;28;20046;-87
2021/03/12 02:11:12;;;;;;;0.50;0.32;;;4.90;99.90;;;;;;5001902;28;20061;-86
2021/03/12 02:13:51;;;;;;;0.30;0.30;;;4.90;99.90;;;;;;4999759;28;20050;-86
2021/03/12 02:16:43;;;;;;;0.95;0.30;;;5.00;99.90;;;;;;5017612;28;20050;-86
2021/03/12 02:19:51;;;;;;;0.82;0.30;;;5.10;99.90;;;;;;4999054;28;20484;-86
2021/03/12 02:22:21;;;;;;;1.20;0.40;;;5.10;99.90;;;;;;5016520;28;20050;-86
2021/03/12 02:25:01;;;;;;;0.80;0.32;;;5.00;99.90;;;;;;5017198;28;20100;-86
2021/03/12 02:27:27;;;;;;;2.10;0.45;;;4.90;99.90;;;;;;4999341;28;20061;-86
2021/03/12 02:29:58;;;;;;;2.17;0.50;;;4.90;99.90;;;;;;4999336;28;20050;-86
2021/03/12 02:32:33;;;;;;;1.20;0.30;;;4.80;99.90;;;;;;4999110;28;20104;-87
2021/03/12 02:35:04;;;;;;;1.38;0.75;;;4.70;99.90;;;;;;4999161;28;20064;-86
2021/03/12 02:37:31;;;;;;;2.35;0.80;;;4.70;99.90;;;;;;4998978;28;20053;-86
2021/03/12 02:39:59;;;;;;;1.77;0.40;;;4.80;99.90;;;;;;4999347;28;20050;-86
2021/03/12 02:42:27;;;;;;;0.30;0.30;;;4.80;99.90;;;;;;4998990;28;20050;-86
2021/03/12 02:44:55;;;;;;;2.50;0.50;;;4.90;99.90;;;;;;5016672;28;20077;-87
2021/03/12 02:47:27;;;;;;;0.70;0.30;;;4.80;99.90;;;;;;4999346;28;20041;-86
2021/03/12 02:49:54;;;;;;;0.63;0.30;;;4.70;99.90;;;;;;4999719;28;20528;-86
2021/03/12 02:52:21;;;;;;;0.88;0.40;;;4.70;99.90;;;;;;4999093;28;20054;-86
2021/03/12 02:54:49;;;;;;;1.13;0.30;;;4.80;99.90;;;;;;4999120;28;20077;-86
2021/03/12 02:57:22;;;;;;;3.58;0.60;;;4.80;99.90;;;;;;4999591;28;20046;-85
2021/03/12 02:59:51;;;;;;;2.65;0.30;;;4.90;99.90;;;;;;4999295;28;20496;-86
2021/03/12 03:02:21;;;;;;;2.70;0.50;;;5.10;99.90;;;;;;4999360;28;20049;-87
2021/03/12 03:04:48;;;;;;;1.65;0.30;;;5.10;99.90;;;;;;4999157;28;20042;-86
2021/03/12 03:07:18;;;;;;;0.80;0.30;;;5.10;99.90;;;;;;4998941;28;20562;-86
2021/03/12 03:09:44;;;;;;;0.70;0.43;;;5.20;99.90;;;;;;4998550;28;20046;-85
2021/03/12 03:12:15;;;;;;;2.67;0.45;;;5.20;99.90;;;;;;4998827;28;20077;-86
2021/03/12 03:14:42;;;;;;;1.35;0.43;;;5.20;99.90;;;;;;4999620;28;20081;-86
2021/03/12 03:17:11;;;;;;;1.30;0.40;;;5.10;99.90;;;;;;4999738;28;20410;-86
2021/03/12 03:19:42;;;;;;;1.30;0.35;;;5.00;99.90;;;;;;5000609;28;20416;-86
2021/03/12 03:22:10;;;;;;;2.92;0.75;;;4.80;99.90;;;;;;5000624;28;20050;-86
2021/03/12 03:24:38;;;;;;;1.35;0.40;;;4.80;99.90;;;;;;5000962;28;20494;-87
2021/03/12 03:27:07;;;;;;;0.90;0.22;;;4.70;99.90;;;;;;5002967;28;20474;-86
2021/03/12 03:29:34;;;;;;;1.17;0.40;;;4.60;99.90;;;;;;5017230;28;20050;-85
2021/03/12 03:32:01;;;;;;;1.30;0.20;;;4.60;99.90;;;;;;4999526;28;20050;-85
2021/03/12 03:34:27;;;;;;;0.77;0.50;;;4.70;99.90;;;;;;4999375;28;20081;-86
2021/03/12 03:36:54;;;;;;;1.00;0.40;;;4.70;99.90;;;;;;4999856;28;20057;-86
2021/03/12 03:39:20;;;;;;;0.45;0.20;;;4.80;99.90;;;;;;5000337;28;20049;-85
2021/03/12 03:41:59;;;;;;;1.00;0.70;;;4.80;99.90;;;;;;5000673;28;20076;-86
2021/03/12 03:44:28;;;;;;;2.80;0.65;;;4.80;99.90;;;;;;5001620;28;20069;-87
2021/03/12 03:47:01;;;;;;;0.60;0.30;;;4.90;99.90;;;;;;5000457;28;20147;-86
2021/03/12 03:49:28;;;;;;;2.30;0.35;;;4.90;99.90;;;;;;5001256;28;20127;-87
2021/03/12 03:51:55;;;;;;;1.27;0.63;;;5.00;99.90;;;;;;5001470;28;20076;-87
2021/03/12 03:54:22;;;;;;;0.30;0.20;;;4.90;99.90;;;;;;5019356;28;20050;-87
2021/03/12 03:56:49;;;;;;;0.55;0.32;;;4.90;99.90;;;;;;5001277;28;20526;-87
2021/03/12 03:59:17;;;;;;;2.28;0.40;;;4.90;99.90;;;;;;5002133;28;20073;-86
2021/03/12 04:01:45;;;;;;;1.70;0.22;;;4.90;99.90;;;;;;5001230;28;20041;-86
2021/03/12 04:04:14;;;;;;;2.00;0.40;;;4.90;99.90;;;;;;5003487;28;20128;-87
2021/03/12 04:06:42;;;;;;;0.85;0.30;;;4.80;99.90;;;;;;5006639;28;20073;-86
2021/03/12 04:09:12;;;;;;;1.80;0.50;;;4.90;99.90;;;;;;5006848;28;20108;-86
2021/03/12 04:11:39;;;;;;;2.22;0.60;;;4.90;99.90;;;;;;5007255;28;20108;-87
2021/03/12 04:14:07;;;;;;;1.88;0.63;;;4.90;99.90;;;;;;5007598;28;20069;-87
2021/03/12 04:16:33;;;;;;;2.03;0.63;;;4.80;99.90;;;;;;5008027;28;20050;-86
2021/03/12 04:19:01;;;;;;;1.73;0.43;;;4.80;99.90;;;;;;5010011;28;20054;-86
2021/03/12 04:21:28;;;;;;;1.85;0.68;;;4.70;99.90;;;;;;5027801;28;20590;-85
2021/03/12 04:23:55;;;;;;;1.52;0.60;;;4.70;99.90;;;;;;5011160;28;20068;-86
2021/03/12 04:26:23;;;;;;;1.65;0.40;;;4.80;99.90;;;;;;5005244;28;20479;-86
2021/03/12 04:28:50;;;;;;;0.82;0.70;;;4.80;99.90;;;;;;5005845;28;20491;-85
2021/03/12 04:31:16;;;;;;;2.17;0.60;;;4.90;99.90;;;;;;5004721;28;20081;-86
2021/03/12 04:33:44;;;;;;;1.85;0.50;;;5.00;99.90;;;;;;5006155;28;20541;-86
2021/03/12 04:36:11;;;;;;;1.02;0.50;;;5.00;99.90;;;;;;5005645;28;20081;-85
2021/03/12 04:38:37;;;;;;;0.43;0.38;;;5.00;99.90;;;;;;5007328;28;20077;-84
2021/03/12 04:41:04;;;;;;;1.83;0.40;;;5.00;99.90;;;;;;5011066;28;20069;-85
2021/03/12 04:43:33;;;;;;;2.08;0.50;;;5.10;99.90;;;;;;5014566;28;20052;-84
2021/03/12 04:46:01;;;;;;;2.92;0.80;;;5.10;99.90;;;;;;5005042;28;20050;-84
2021/03/12 04:48:30;;;;;;;1.33;0.43;;;5.10;99.90;;;;;;5004578;28;20042;-84
2021/03/12 04:50:58;;;;;;;2.70;0.47;;;4.90;99.90;;;;;;5004171;28;20073;-84
2021/03/12 04:53:29;;;;;;;2.78;0.70;;;4.80;99.90;;;;;;5004626;28;20400;-84
2021/03/12 04:55:56;;;;;;;3.38;0.43;;;4.70;99.90;;;;;;5004250;28;20120;-83
2021/03/12 04:58:24;;;;;;;0.82;0.50;;;4.70;99.90;;;;;;5003251;28;20073;-85
2021/03/12 05:00:52;;;;;;;2.17;0.57;;;4.70;99.90;;;;;;5018497;28;20061;-85
2021/03/12 05:03:19;;;;;;;1.42;0.30;;;4.80;99.90;;;;;;5001391;28;20484;-85
2021/03/12 05:05:47;;;;;;;2.35;0.65;;;4.80;99.90;;;;;;5001352;28;20575;-85
2021/03/12 05:08:14;;;;;;;2.55;0.52;;;4.80;99.90;;;;;;5001829;28;20096;-85
2021/03/12 05:10:56;;;;;;;2.85;0.68;;;4.80;99.90;;;;;;5001154;28;20053;-86
2021/03/12 05:13:23;;;;;;;2.78;0.70;;;4.90;99.90;;;;;;5001295;28;20050;-84
2021/03/12 05:15:49;;;;;;;1.45;0.68;;;4.90;99.90;;;;;;5000242;28;20081;-86
2021/03/12 05:18:15;;;;;;;2.38;1.00;;;5.00;99.90;;;;;;5001587;28;20054;-85
2021/03/12 05:20:44;;;;;;;1.63;0.50;;;5.00;99.90;;;;;;5001152;28;20046;-85
2021/03/12 05:23:10;;;;;;;3.85;0.60;;;5.10;99.90;;;;;;5000678;28;20119;-85
2021/03/12 05:25:37;;;;;;;0.57;0.57;;;5.10;99.90;;;;;;5000697;28;20100;-85
2021/03/12 05:28:03;;;;;;;1.73;0.57;;;5.10;99.90;;;;;;5000776;28;20163;-85
2021/03/12 05:30:29;;;;;;;1.27;0.60;;;5.10;99.90;;;;;;5001099;28;20053;-85
2021/03/12 05:32:56;;;;;;;0.93;0.50;;;5.10;99.90;;;;;;5000876;28;20145;-85
2021/03/12 05:35:23;;;;;;;3.13;0.70;;;5.00;99.90;;;;;;5001747;28;20081;-86
2021/03/12 05:37:49;;;;;;;4.00;0.80;;;4.90;99.90;;;;;;5000409;28;20090;-84
2021/03/12 05:40:16;;;;;;;1.50;0.60;;;4.80;99.90;;;;;;5000681;28;20054;-84
2021/03/12 05:42:43;;;;;;;3.50;0.90;;;4.70;99.90;;;;;;5000897;28;20046;-84
2021/03/12 05:45:11;;;;;;;2.28;0.70;;;4.70;99.90;;;;;;5018733;28;20065;-85
2021/03/12 05:47:37;;;;;;;2.67;0.60;;;4.70;99.90;;;;;;5000777;28;20146;-84
2021/03/12 05:50:06;;;;;;;4.30;1.25;;;4.70;99.90;;;;;;5001398;28;20081;-85
2021/03/12 05:52:33;;;;;;;4.90;0.70;;;4.80;99.90;;;;;;5001575;28;20052;-85
2021/03/12 05:55:00;;;;;;;3.33;0.50;;;4.90;99.90;;;;;;5001761;28;20049;-85
2021/03/12 05:57:29;;;;;;;1.48;0.68;;;4.90;99.90;;;;;;5002210;28;20049;-85
2021/03/12 05:59:59;;;;;;;3.25;0.98;;;5.00;99.90;;;;;;5003579;28;20069;-85
2021/03/12 06:02:27;;;;;;;3.25;0.60;;;4.90;99.90;;;;;;4999301;28;20056;-84
2021/03/12 06:04:53;;;;;;;3.88;0.98;;;4.90;99.90;;;;;;4998955;28;20052;-85
2021/03/12 06:07:20;;;;;;;3.80;0.47;;;4.80;99.90;;;;;;4999467;28;20054;-84
2021/03/12 06:09:46;;;;;;;4.70;0.77;;;4.90;99.90;;;;;;4998395;28;20456;-84
2021/03/12 06:12:13;;;;;;;1.27;0.70;;;4.80;99.90;;;;;;5016026;28;20142;-84
2021/03/12 06:14:47;;;;;;;1.35;0.77;;;4.80;99.90;;;;;;4999842;28;20071;-84
2021/03/12 06:17:33;;;;;;;3.70;0.60;;;4.70;99.90;;;;;;4998263;28;20054;-85
2021/03/12 06:20:03;;;;;;;1.00;0.70;;;4.70;99.90;;;;;;4998721;28;20050;-84
2021/03/12 06:22:29;;;;;;;3.67;0.88;;;4.70;99.90;;;;;;4998423;28;20139;-85
2021/03/12 06:25:10;;;;;;;2.05;0.52;;;4.70;99.90;;;;;;4998750;28;20100;-85
2021/03/12 06:27:38;;;;;;;3.53;0.70;;;4.80;99.90;;;;;;4998326;28;20097;-84
2021/03/12 06:30:05;;;;;;;2.47;0.80;;;4.70;99.90;;;;;;4998250;28;20065;-84
2021/03/12 06:32:40;;;;;;;3.45;0.57;;;4.70;99.90;;;;;;4998314;28;20085;-85
2021/03/12 06:35:08;;;;;;;4.57;0.85;;;4.70;99.90;;;;;;4998413;28;20078;-85
2021/03/12 06:37:35;;;;;;;1.75;0.90;;;4.70;99.90;;;;;;4998027;28;20057;-85
2021/03/12 06:40:13;;;;;;;5.05;0.70;;;4.70;99.90;;;;;;4998055;28;20046;-84
2021/03/12 06:42:59;;;;;;;2.25;0.70;;;4.70;99.90;;;;;;4997719;28;20050;-84
2021/03/12 06:45:26;;;;;;;3.10;0.85;;;4.70;99.90;;;;;;4998297;28;20495;-83
2021/03/12 06:47:53;;;;;;;3.55;0.98;;;4.70;99.90;;;;;;4997926;28;20443;-84
2021/03/12 06:50:20;;;;;;;1.65;0.43;;;4.70;99.90;;;;;;4998577;28;20054;-84
2021/03/12 06:52:46;;;;;;;3.83;1.00;;;4.70;99.90;;;;;;4998676;28;20054;-84
2021/03/12 06:55:13;;;;;;;5.28;0.73;;;4.60;99.90;;;;;;5015180;28;20049;-84
2021/03/12 06:57:41;;;;;;;2.50;0.50;;;4.60;99.90;;;;;;4997544;28;20622;-85
2021/03/12 07:00:08;;;;;;;2.75;0.70;;;4.60;99.90;;;;;;4998410;28;20050;-85
2021/03/12 07:02:37;;;;;;;4.55;0.70;;;4.70;99.90;;;;;;5016268;28;20072;-85
2021/03/12 07:05:05;;;;;;;1.40;0.57;;;4.80;99.90;;;;;;4998908;28;20056;-85
2021/03/12 07:07:34;;;;;;;5.60;1.00;;;4.90;99.90;;;;;;5002590;28;20604;-83
2021/03/12 07:10:02;;;;;;;2.45;0.50;;;5.00;99.90;;;;;;5006549;28;20046;-84
2021/03/12 07:12:47;;;;;;;3.47;1.33;;;5.20;99.90;;;;;;5007637;28;20088;-84
2021/03/12 07:15:14;;;;;;;2.38;0.60;;;5.20;99.90;;;;;;5024560;28;20053;-84
2021/03/12 07:17:41;;;;;;;2.70;0.80;;;5.20;99.90;;;;;;5008001;28;20082;-83
2021/03/12 07:20:10;;;;;;;4.13;0.85;;;5.30;99.90;;;;;;5001191;28;20073;-84
2021/03/12 07:22:39;;;;;;;4.00;0.95;;;5.40;99.90;;;;;;5001228;28;20503;-84
2021/03/12 07:25:08;;;;;;;4.38;0.85;;;5.40;99.90;;;;;;5001134;28;20081;-84
2021/03/12 07:27:40;;;;;;;5.82;1.02;;;5.50;99.90;;;;;;5000888;28;20074;-83
2021/03/12 07:30:09;;;;;;;3.20;0.55;;;5.70;99.90;;;;;;5000470;28;20491;-84
2021/03/12 07:32:37;;;;;;;2.83;0.82;;;5.80;99.90;;;;;;5001862;28;20509;-83
2021/03/12 07:35:06;;;;;;;2.72;0.60;;;5.90;99.90;;;;;;5019518;28;20066;-84
2021/03/12 07:37:35;;;;;;;2.13;0.70;;;5.90;99.90;;;;;;5001806;28;20054;-84
2021/03/12 07:40:05;;;;;;;3.80;0.73;;;5.90;99.90;;;;;;5000287;28;20056;-84
2021/03/12 07:42:33;;;;;;;4.22;2.47;;;6.00;99.90;;;;;;5001104;28;20480;-84
2021/03/12 07:45:00;;;;;;;3.65;1.67;;;6.10;99.90;;;;;;5017405;28;20089;-84
2021/03/12 07:47:28;;;;;;;8.88;2.30;;;6.20;99.90;;;;;;5000861;28;20041;-83
2021/03/12 07:49:55;;;;;;;2.13;0.93;;;6.30;99.90;;;;;;5017095;28;20054;-85
2021/03/12 07:53:02;;;;;;;7.70;2.20;;;6.40;99.90;;;;;;5000164;28;20428;-83
2021/03/12 07:55:44;;;;;;;2.20;0.60;;;6.40;99.90;;;;;;5000732;28;20077;-83
2021/03/12 07:58:31;;;;;;;5.28;0.80;;;6.40;99.90;;;;;;5014168;28;20148;-84
2021/03/12 08:01:17;;;;;;;9.55;2.40;;;6.50;99.90;;;;;;5000475;28;20046;-83
2021/03/12 08:03:59;;;;;;;2.88;0.90;;;6.60;99.90;;;;;;4995855;28;20050;-83
2021/03/12 08:06:38;;;;;;;9.68;1.23;;;6.70;99.90;;;;;;4990476;28;20462;-82
2021/03/12 08:09:31;;;;;;;2.80;0.63;;;6.90;99.90;;;;;;4972174;28;20066;-83
2021/03/12 08:12:00;;;;;;;1.65;0.60;;;6.90;99.90;;;;;;5005122;28;20104;-84
2021/03/12 08:14:41;;;;;;;5.07;1.00;;;6.70;99.90;;;;;;5002107;28;20483;-84
2021/03/12 08:17:12;;;;;;;6.65;0.85;;;6.70;99.90;;;;;;5013141;28;20042;-84
2021/03/12 08:19:44;;;;;;;3.67;0.90;;;6.70;99.90;;;;;;4996120;28;20452;-84
2021/03/12 08:22:37;;;;;;;1.92;1.00;;;7.10;99.90;;;;;;4996120;28;20050;-85
2021/03/12 08:25:05;;;;;;;3.28;0.95;;;7.90;99.90;;;;;;5002425;28;20515;-84
2021/03/12 08:27:49;;;;;;;3.42;1.05;;;8.20;99.90;;;;;;5002391;28;20048;-84
2021/03/12 08:30:54;;;;;;;2.33;0.85;;;8.40;99.90;;;;;;5000919;28;20403;-84
2021/03/12 08:33:33;;;;;;;3.05;0.70;;;8.30;99.90;;;;;;4995615;28;20054;-84
2021/03/12 08:36:06;;;;;;;5.90;1.63;;;8.90;99.90;;;;;;5003467;28;20042;-84
2021/03/12 08:38:38;;;;;;;2.35;1.08;;;9.10;99.90;;;;;;5004705;28;20049;-84
2021/03/12 08:41:17;;;;;;;2.75;0.60;;;8.80;99.90;;;;;;5004516;28;20050;-84
2021/03/12 08:43:50;;;;;;;5.22;1.83;;;8.50;99.90;;;;;;5002342;28;20522;-84
2021/03/12 08:46:26;;;;;;;1.30;0.75;;;8.70;99.90;;;;;;5001455;28;20145;-84
2021/03/12 08:48:58;;;;;;;5.30;1.65;;;8.60;99.90;;;;;;4999773;28;20046;-84
2021/03/12 08:51:33;;;;;;;5.53;1.10;;;8.50;99.90;;;;;;5000749;28;20128;-82
2021/03/12 08:54:18;;;;;;;3.05;0.90;;;8.40;99.90;;;;;;5005222;28;20085;-84
2021/03/12 08:56:47;;;;;;;6.93;1.05;;;8.30;99.90;;;;;;5003106;28;20069;-83
2021/03/12 08:59:29;;;;;;;3.80;1.00;;;8.40;99.90;;;;;;5002932;28;20054;-84
2021/03/12 09:02:00;;;;;;;9.32;1.00;;;8.50;99.90;;;;;;5003385;28;20057;-84
2021/03/12 09:04:34;;;;;;;3.72;1.02;;;8.00;99.90;;;;;;5003571;28;20069;-85
2021/03/12 09:07:08;;;;;;;3.97;1.00;;;8.10;99.90;;;;;;4990403;28;20053;-84
2021/03/12 09:09:42;;;;;;;3.17;0.73;;;8.80;99.90;;;;;;5005531;28;20110;-83
2021/03/12 09:12:12;;;;;;;3.03;0.90;;;9.50;99.90;;;;;;5003033;28;20060;-84
2021/03/12 09:14:44;;;;;;;6.20;1.13;;;9.50;99.90;;;;;;5003985;28;20062;-83
2021/03/12 09:17:19;;;;;;;4.50;1.27;;;9.40;99.90;;;;;;5003550;28;20046;-84
2021/03/12 09:19:55;;;;;;;5.97;1.02;;;10.00;99.90;;;;;;5003911;28;20053;-84
2021/03/12 09:22:25;;;;;;;2.97;0.90;;;10.60;99.90;;;;;;5004145;28;20050;-84
2021/03/12 09:25:00;;;;;;;4.15;1.90;;;10.60;99.50;;;;;;5004719;28;20046;-84
2021/03/12 09:27:38;;;;;;;2.88;0.98;;;10.10;99.90;;;;;;5004464;28;20056;-84
2021/03/12 09:30:28;;;;;;;3.92;1.13;;;9.60;99.90;;;;;;5022421;28;20103;-84
2021/03/12 09:33:02;;;;;;;2.25;0.60;;;8.80;99.90;;;;;;5010583;28;20085;-85
2021/03/12 09:35:46;;;;;;;1.30;1.20;;;8.20;99.90;;;;;;4988079;28;20104;-84
2021/03/12 09:38:38;;;;;;;6.57;1.10;;;8.00;99.90;;;;;;4988338;28;20060;-84
2021/03/12 09:41:29;;;;;;;5.35;1.00;;;8.20;99.90;;;;;;4988344;28;20073;-83
2021/03/12 09:44:19;;;;;;;4.57;1.60;;;8.20;99.90;;;;;;4988090;28;20411;-84
2021/03/12 09:46:58;;;;;;;11.20;1.40;;;8.50;99.90;;;;;;4990818;28;20050;-84
2021/03/12 09:49:43;;;;;;;4.47;1.33;;;8.40;99.90;;;;;;4991853;28;20118;-83
2021/03/12 09:52:20;;;;;;;10.10;1.52;;;8.40;99.90;;;;;;4982652;28;20046;-84
2021/03/12 09:55:07;;;;;;;3.53;1.23;;;8.40;99.90;;;;;;4983261;28;20042;-84
2021/03/12 09:57:39;;;;;;;3.08;1.00;;;8.40;99.90;;;;;;4999725;28;20105;-83
2021/03/12 10:00:13;;;;;;;3.25;1.20;;;8.70;99.90;;;;;;4981064;28;20054;-84
2021/03/12 10:02:54;;;;;;;5.53;1.20;;;9.20;99.90;;;;;;4998516;28;20062;-84
2021/03/12 10:05:25;;;;;;;4.35;1.00;;;9.60;99.90;;;;;;4998477;28;20065;-83
2021/03/12 10:08:04;;;;;;;;;;;9.50;99.90;;;;;;4984091;28;20101;-84
2021/03/12 10:10:36;;;;;;;5.55;1.33;;;9.80;99.90;;;;;;4983290;28;19921;-83
2021/03/12 10:13:30;;;;;;;2.30;1.35;;;9.70;99.90;;;;;;4984467;28;20050;-84
2021/03/12 10:16:12;;;;;;;3.47;1.25;;;9.50;99.90;;;;;;4983382;28;20082;-85
2021/03/12 10:18:59;;;;;;;5.15;1.83;;;8.90;99.90;;;;;;4968896;28;20061;-84
2021/03/12 10:21:33;;;;;;;7.47;1.77;;;8.30;99.90;;;;;;4967212;28;20133;-83
2021/03/12 10:24:14;;;;;;;4.95;1.10;;;8.30;99.90;;;;;;4982670;28;20050;-85
2021/03/12 10:26:47;;;;;;;8.02;1.55;;;8.20;99.90;;;;;;4984067;28;20085;-85
2021/03/12 10:29:21;;;;;;;5.20;1.83;;;8.00;99.90;;;;;;4982045;28;20508;-84
2021/03/12 10:31:51;;;;;;;7.93;1.20;;;8.10;99.90;;;;;;4986499;28;20050;-85
2021/03/12 10:34:56;;;;;;;8.70;2.05;;;8.10;99.90;;;;;;5006003;28;20137;-84
2021/03/12 10:37:33;;;;;;;7.10;1.20;;;8.30;99.90;;;;;;5001287;28;20050;-84
2021/03/12 10:40:07;;;;;;;5.45;1.50;;;8.70;99.90;;;;;;5001133;28;20100;-84
2021/03/12 10:42:42;;;;;;;5.68;1.08;;;11.80;99.90;;;;;;5003447;28;20093;-84
2021/03/12 10:45:27;;;;;;;3.90;0.98;;;13.30;96.70;;;;;;4995466;28;20129;-85
2021/03/12 10:48:04;;;;;;;5.73;1.03;;;14.40;77.90;;;;;;5003214;28;20050;-84
2021/03/12 10:51:01;;;;;;;9.13;1.25;;;14.50;77.90;;;;;;5006681;28;20058;-85
2021/03/12 10:53:43;;;;;;;5.90;1.48;;;15.10;69.20;;;;;;5005150;28;20203;-84
2021/03/12 10:56:15;;;;;;;2.95;0.63;;;14.60;72.00;;;;;;4999067;28;20077;-84
2021/03/12 10:58:48;;;;;;;6.43;0.90;;;14.50;70.00;;;;;;5006876;28;20053;-85
2021/03/12 11:01:25;;;;;;;2.55;0.90;;;14.80;73.00;;;;;;5009874;28;20077;-85
2021/03/12 11:03:58;;;;;;;2.65;0.70;;;15.40;67.90;;;;;;5010435;28;20046;-85
2021/03/12 11:06:38;;;;;;;1.98;0.77;;;14.80;66.10;;;;;;5006801;28;20110;-84
2021/03/12 11:09:10;;;;;;;4.50;1.10;;;14.70;69.70;;;;;;5004124;28;20060;-83
2021/03/12 11:11:51;;;;;;;3.00;1.00;;;15.10;63.90;;;;;;5003752;28;20479;-84
2021/03/12 11:14:22;;;;;;;3.58;0.75;;;14.60;64.50;;;;;;5002020;28;20132;-84
2021/03/12 11:16:56;;;;;;;3.63;1.83;;;14.50;68.50;;;;;;5002733;28;20130;-84
2021/03/12 11:19:31;;;;;;;2.17;0.77;;;14.60;67.10;;;;;;5002421;28;20054;-83
2021/03/12 11:22:04;;;;;;;5.18;1.10;;;14.00;63.90;;;;;;5001309;28;20050;-84
2021/03/12 11:24:32;;;;;;;2.80;0.63;;;13.50;67.80;;;;;;5001561;28;20049;-83
2021/03/12 11:27:00;;;;;;;14.77;10.65;;;13.40;64.50;;;;;;4999113;28;20046;-84
2021/03/12 11:29:35;;;;;;;13.80;8.70;;;13.80;68.70;;;;;;5003167;28;20045;-84
2021/03/12 11:32:07;;;;;;;3.42;0.70;;;14.20;67.00;;;;;;5002245;28;20419;-84
2021/03/12 11:34:39;;;;;;;4.57;1.20;;;13.90;63.80;;;;;;4999832;28;20042;-83
2021/03/12 11:37:09;;;;;;;3.25;0.80;;;13.70;65.30;;;;;;5003327;28;20140;-85
2021/03/12 11:39:40;;;;;;;3.55;1.10;;;13.60;65.60;;;;;;4998796;28;20077;-84
2021/03/12 11:42:20;;;;;;;3.78;1.00;;;13.90;63.40;;;;;;5001430;28;20041;-84
2021/03/12 11:44:53;;;;;;;3.65;0.88;;;14.00;62.80;;;;;;4988591;28;20058;-84
2021/03/12 11:47:21;;;;;;;5.10;1.98;;;15.00;60.90;;;;;;5004612;28;20066;-84
2021/03/12 11:49:51;;;;;;;5.15;4.65;;;15.50;60.10;;;;;;5004133;28;20050;-84
2021/03/12 11:52:25;;;;;;;3.58;1.58;;;15.40;59.80;;;;;;5004088;28;20104;-84
2021/03/12 11:55:06;;;;;;;1.60;1.02;;;14.80;58.70;;;;;;5000571;28;20093;-84
2021/03/12 11:57:48;;;;;;;8.10;7.18;;;14.50;60.30;;;;;;4990117;28;20046;-82
2021/03/12 12:00:22;;;;;;;1.95;0.80;;;14.00;62.50;;;;;;4986542;28;20046;-84
2021/03/12 12:02:51;;;;;;;2.25;0.70;;;13.70;60.50;;;;;;4999385;28;20156;-84
2021/03/12 12:05:24;;;;;;;3.75;0.82;;;13.30;61.60;;;;;;5005929;28;20112;-85
2021/03/12 12:08:00;;;;;;;3.80;0.90;;;13.50;60.90;;;;;;5007055;28;20056;-84
2021/03/12 12:10:34;;;;;;;3.38;0.95;;;14.20;62.20;;;;;;5005903;28;20084;-85
2021/03/12 12:13:06;;;;;;;3.22;0.75;;;13.80;61.80;;;;;;5006021;28;20046;-83
2021/03/12 12:15:35;;;;;;;4.80;0.52;;;13.70;61.20;;;;;;5006966;28;20061;-84
2021/03/12 12:18:10;;;;;;;1.75;0.73;;;12.90;62.40;;;;;;4993057;28;20423;-84
2021/03/12 12:20:59;;;;;;;5.97;1.00;;;12.10;63.90;;;;;;5011975;28;20490;-85
2021/03/12 12:23:37;;;;;;;2.63;0.80;;;11.70;66.90;;;;;;5006807;28;20066;-86
2021/03/12 12:26:21;;;;;;;5.68;1.00;;;12.50;70.90;;;;;;5012586;28;20050;-85
2021/03/12 12:28:49;;;;;;;2.85;0.75;;;13.50;68.00;;;;;;5011702;28;20458;-85
2021/03/12 12:31:28;;;;;;;2.78;0.70;;;13.80;64.90;;;;;;5010651;28;20435;-85
2021/03/12 12:34:17;;;;;;;2.80;0.83;;;13.60;62.70;;;;;;4992203;28;20050;-85
2021/03/12 12:36:46;;;;;;;5.70;1.15;;;13.50;63.00;;;;;;5010150;28;20116;-85
2021/03/12 12:39:29;;;;;;;1.75;0.85;;;12.90;64.30;;;;;;4981186;28;20054;-84
2021/03/12 12:41:59;;;;;;;4.28;0.90;;;12.60;63.30;;;;;;5006232;28;20047;-85
2021/03/12 12:44:34;;;;;;;10.50;1.25;;;12.50;64.70;;;;;;4988048;28;20069;-84
2021/03/12 12:47:04;;;;;;;3.30;0.80;;;13.20;64.40;;;;;;4987903;28;20078;-84
2021/03/12 12:49:46;;;;;;;2.88;0.70;;;12.60;63.40;;;;;;4989752;28;20053;-84
2021/03/12 12:52:17;;;;;;;6.07;0.93;;;11.90;65.70;;;;;;4989009;28;20046;-84
2021/03/12 12:54:52;;;;;;;3.97;0.82;;;11.70;67.60;;;;;;4989196;28;20121;-84
2021/03/12 12:57:22;;;;;;;9.38;1.30;;;12.00;68.20;;;;;;4987803;28;20051;-85
2021/03/12 12:59:55;;;;;;;6.60;1.02;;;12.30;68.00;;;;;;4991512;28;20057;-84
2021/03/12 13:02:23;;;;;;;5.60;1.08;;;11.90;67.30;;;;;;4985941;28;20074;-83
2021/03/12 13:04:51;;;;;;;5.10;1.35;;;12.00;68.80;;;;;;4987865;28;20077;-83
2021/03/12 13:07:29;;;;;;;7.78;1.20;;;11.70;69.20;;;;;;4988415;28;20114;-85
2021/03/12 13:10:12;;;;;;;12.02;1.55;;;11.60;70.50;;;;;;4986167;28;20130;-84
2021/03/12 13:12:42;;;;;;;5.97;1.40;;;10.90;72.70;;;;;;4987696;28;20054;-85
2021/03/12 13:15:18;;;;;;;3.65;0.90;;;10.50;75.60;;;;;;4989042;28;20050;-83
2021/03/12 13:17:51;;;;;;;10.10;1.95;;;11.00;76.90;;;;;;4986812;28;20062;-84
2021/03/12 13:20:42;;;;;;;5.32;0.80;;;11.50;75.60;;;;;;5003466;28;20050;-84